This is the latest recevied weather packets stored in our database for station/object DG3RAP-11. If no packets are shown the sender has not sent any weather packets the latest 10 day(s).
| Time | Temp. | Humidity | Pressure | Rain* | Wind** | Luminosity | Snow |
|---|---|---|---|---|---|---|---|
| 1777905903 | 24.44° C | 33% | 1011.1 hPa | 0 mm | - | - | - |
| 1777905363 | 25.56° C | 33% | 1011.1 hPa | 0 mm | - | - | - |
| 1777904823 | 26.11° C | 31% | 1011.4 hPa | 0 mm | - | - | - |
| 1777904283 | 26.11° C | 30% | 1011.5 hPa | 0 mm | - | - | - |
| 1777903743 | 25.56° C | 31% | 1011.5 hPa | 0 mm | - | - | - |
| 1777903203 | 26.11° C | 31% | 1011.6 hPa | 0 mm | - | - | - |
| 1777902843 | 26.11° C | 32% | 1011.8 hPa | 0 mm | - | - | - |
| 1777902303 | 26.11° C | 32% | 1011.8 hPa | 0 mm | - | - | - |
| 1777901763 | 27.22° C | 29% | 1011.7 hPa | 0 mm | - | - | - |
| 1777901223 | 25.56° C | 31% | 1011.8 hPa | 0 mm | - | - | - |
| 1777900683 | 25° C | 33% | 1012.1 hPa | 0 mm | - | - | - |
| 1777900143 | 25.56° C | 33% | 1012.2 hPa | 0 mm | - | - | - |
| 1777899603 | 25° C | 33% | 1012.3 hPa | 0 mm | - | - | - |
| 1777899243 | 23.89° C | 34% | 1012.4 hPa | 0 mm | - | - | - |
| 1777898703 | 23.33° C | 34% | 1012.6 hPa | 0 mm | - | - | - |
| 1777898163 | 24.44° C | 34% | 1012.4 hPa | 0 mm | - | - | - |
| 1777897623 | 24.44° C | 34% | 1012.8 hPa | 0 mm | - | - | - |
| 1777897083 | 23.89° C | 36% | 1012.6 hPa | 0 mm | - | - | - |
| 1777896543 | 24.44° C | 34% | 1012.8 hPa | 0 mm | - | - | - |
| 1777896003 | 24.44° C | 33% | 1012.9 hPa | 0 mm | - | - | - |
| 1777895643 | 24.44° C | 36% | 1012.9 hPa | 0 mm | - | - | - |
| 1777895104 | 23.33° C | 35% | 1013 hPa | 0 mm | - | - | - |
| 1777894563 | 23.33° C | 35% | 1013.3 hPa | 0 mm | - | - | - |
| 1777894023 | 22.78° C | 35% | 1013.2 hPa | 0 mm | - | - | - |
| 1777893483 | 22.78° C | 35% | 1013.2 hPa | 0 mm | - | - | - |
* Rain latest hour (hover to see other rain measurements)
** Current wind speed in m/s (hover to see current wind gust speed)